Time;durP1;ratioP1;P1;durP2;ratioP2;P2;SDS_P1;SDS_P2;PMS_P1;PMS_P2;Temp;Humidity;BMP_temperature;BMP_pressure;BME280_temperature;BME280_humidity;BME280_pressure;Samples;Min_cycle;Max_cycle;Signal;HPM_P1;HPM_P2
2021/01/24 00:00:09;;;;;;;39.90;22.02;;;7.60;98.40;;;;;;4997756;28;20034;-79
2021/01/24 00:02:35;;;;;;;38.05;21.83;;;7.60;98.40;;;;;;4997811;28;20061;-78
2021/01/24 00:05:01;;;;;;;36.25;21.05;;;7.60;98.30;;;;;;4997666;28;20061;-78
2021/01/24 00:07:27;;;;;;;34.92;21.10;;;7.60;98.30;;;;;;4998534;28;20054;-78
2021/01/24 00:09:53;;;;;;;35.60;20.67;;;7.70;98.30;;;;;;4998867;28;20023;-77
2021/01/24 00:12:18;;;;;;;35.08;18.95;;;7.60;98.30;;;;;;4999058;28;20372;-77
2021/01/24 00:14:44;;;;;;;40.22;20.67;;;7.70;98.60;;;;;;4981515;28;20461;-78
2021/01/24 00:17:10;;;;;;;36.40;21.73;;;7.70;98.30;;;;;;4990447;28;20022;-78
2021/01/24 00:19:35;;;;;;;32.42;19.88;;;7.70;98.40;;;;;;4998573;28;20026;-78
2021/01/24 00:22:01;;;;;;;33.90;21.08;;;7.70;98.50;;;;;;4998486;28;20054;-79
2021/01/24 00:24:26;;;;;;;35.35;20.30;;;7.70;98.50;;;;;;4998351;28;20030;-78
2021/01/24 00:26:52;;;;;;;36.05;22.15;;;7.70;98.40;;;;;;4997439;28;20022;-77
2021/01/24 00:29:18;;;;;;;35.83;20.55;;;7.70;98.40;;;;;;4997354;28;20026;-78
2021/01/24 00:31:44;;;;;;;35.38;21.20;;;7.70;98.40;;;;;;4997162;28;20058;-77
2021/01/24 00:34:10;;;;;;;31.48;20.17;;;7.70;98.40;;;;;;4996768;28;20038;-78
2021/01/24 00:36:36;;;;;;;36.22;21.58;;;7.70;98.40;;;;;;4979508;28;20110;-77
2021/01/24 00:39:03;;;;;;;35.60;21.48;;;7.80;98.50;;;;;;4997471;28;20441;-78
2021/01/24 00:41:28;;;;;;;33.72;21.15;;;7.80;98.50;;;;;;4997764;28;20045;-78
2021/01/24 00:43:54;;;;;;;38.42;23.83;;;7.80;98.50;;;;;;4997193;28;20461;-78
2021/01/24 00:46:20;;;;;;;39.85;23.42;;;7.80;98.50;;;;;;4979990;28;20034;-78
2021/01/24 00:48:46;;;;;;;37.72;23.88;;;7.80;98.50;;;;;;4997049;28;20041;-78
2021/01/24 00:51:12;;;;;;;35.58;22.55;;;7.80;98.50;;;;;;4997185;28;20026;-78
2021/01/24 00:53:37;;;;;;;36.17;22.38;;;7.80;98.80;;;;;;4996668;28;20050;-78
2021/01/24 00:56:03;;;;;;;40.90;22.98;;;7.90;98.60;;;;;;4996522;28;20429;-78
2021/01/24 00:58:29;;;;;;;37.95;22.70;;;7.90;98.60;;;;;;4979064;28;20023;-78
2021/01/24 01:00:54;;;;;;;35.60;22.33;;;7.90;98.60;;;;;;4997471;28;20019;-78
2021/01/24 01:03:20;;;;;;;39.45;23.30;;;7.90;98.50;;;;;;4996841;28;20461;-77
2021/01/24 01:05:46;;;;;;;44.20;24.17;;;7.90;98.50;;;;;;4997185;28;20089;-78
2021/01/24 01:08:13;;;;;;;46.80;25.33;;;7.90;98.40;;;;;;4979389;28;20024;-78
2021/01/24 01:10:38;;;;;;;46.67;26.05;;;7.90;98.40;;;;;;4998046;28;20189;-79
2021/01/24 01:13:04;;;;;;;55.38;25.67;;;7.90;98.30;;;;;;4997774;28;20057;-79
2021/01/24 01:15:30;;;;;;;52.97;26.30;;;7.90;98.50;;;;;;4996847;28;20497;-79
2021/01/24 01:17:56;;;;;;;58.53;27.50;;;7.90;98.40;;;;;;4978933;28;20414;-79
2021/01/24 01:20:21;;;;;;;67.07;29.48;;;7.90;98.30;;;;;;4995156;28;20023;-79
2021/01/24 01:22:47;;;;;;;58.25;28.08;;;7.90;98.30;;;;;;4994737;28;20078;-78
2021/01/24 01:25:13;;;;;;;69.72;27.55;;;7.90;98.30;;;;;;4994826;28;20030;-78
2021/01/24 01:27:39;;;;;;;58.97;26.90;;;7.80;98.30;;;;;;4995134;28;20036;-78
2021/01/24 01:30:06;;;;;;;69.43;29.00;;;7.80;98.50;;;;;;4995133;28;20428;-78
2021/01/24 01:32:32;;;;;;;65.43;29.98;;;7.80;98.40;;;;;;4995408;28;20500;-78
2021/01/24 01:34:58;;;;;;;61.78;27.67;;;7.80;98.40;;;;;;4995168;28;20034;-79
2021/01/24 01:37:24;;;;;;;69.50;28.45;;;7.80;98.50;;;;;;4995252;28;20034;-78
2021/01/24 01:39:51;;;;;;;65.68;27.70;;;7.80;98.50;;;;;;4995234;28;20058;-79
2021/01/24 01:42:17;;;;;;;73.30;29.13;;;7.80;98.60;;;;;;4994843;28;20030;-77
2021/01/24 01:44:45;;;;;;;73.20;30.27;;;7.80;98.60;;;;;;4994263;28;20026;-77
2021/01/24 01:47:22;;;;;;;94.88;30.73;;;7.70;98.90;;;;;;4994519;28;20531;-77
2021/01/24 01:49:49;;;;;;;70.47;28.65;;;7.70;98.50;;;;;;4977368;28;20030;-78
2021/01/24 01:52:15;;;;;;;66.68;30.30;;;7.70;98.60;;;;;;4994389;28;20058;-78
2021/01/24 01:54:47;;;;;;;69.75;28.05;;;7.70;98.70;;;;;;4994559;28;20053;-78
2021/01/24 01:57:13;;;;;;;59.95;28.27;;;7.70;98.80;;;;;;4977070;28;20057;-78
2021/01/24 01:59:40;;;;;;;75.53;28.98;;;7.70;98.90;;;;;;4994199;28;20041;-77
2021/01/24 02:02:30;;;;;;;68.05;28.92;;;7.80;99.00;;;;;;4994497;28;20468;-77
2021/01/24 02:05:08;;;;;;;61.92;28.38;;;7.70;98.80;;;;;;4976566;28;20052;-78
2021/01/24 02:07:33;;;;;;;70.00;29.42;;;7.80;98.90;;;;;;4994319;28;20049;-78
2021/01/24 02:10:13;;;;;;;66.75;29.10;;;7.80;98.90;;;;;;4994227;28;20026;-77
2021/01/24 02:12:56;;;;;;;61.15;28.02;;;7.80;98.90;;;;;;4994643;28;20052;-78
2021/01/24 02:15:26;;;;;;;60.40;27.08;;;7.70;98.90;;;;;;4994271;28;20061;-78
2021/01/24 02:17:59;;;;;;;63.97;26.92;;;7.80;98.90;;;;;;4994316;28;20054;-78
2021/01/24 02:20:55;;;;;;;52.55;24.63;;;7.80;99.00;;;;;;4976721;28;20032;-78
2021/01/24 02:23:25;;;;;;;68.50;26.55;;;7.80;99.00;;;;;;4993711;28;20046;-78
2021/01/24 02:26:01;;;;;;;55.63;26.27;;;7.80;99.10;;;;;;4976316;28;20038;-77
2021/01/24 02:28:46;;;;;;;54.20;24.17;;;7.70;99.00;;;;;;4994204;28;20506;-78
2021/01/24 02:31:14;;;;;;;51.05;23.88;;;7.80;99.00;;;;;;4985578;28;20090;-77
2021/01/24 02:33:40;;;;;;;49.60;23.08;;;7.80;99.00;;;;;;5003275;28;20049;-77
2021/01/24 02:36:09;;;;;;;47.47;22.85;;;7.80;99.10;;;;;;5001999;28;20026;-76
2021/01/24 02:38:37;;;;;;;44.95;22.50;;;7.80;99.10;;;;;;5006375;28;20074;-78
2021/01/24 02:41:06;;;;;;;42.10;21.45;;;7.70;99.00;;;;;;4994099;28;20023;-77
2021/01/24 02:43:32;;;;;;;43.72;21.48;;;7.80;99.00;;;;;;4992986;28;20102;-78
2021/01/24 02:46:00;;;;;;;46.40;21.33;;;7.70;99.00;;;;;;4993220;28;20062;-78
2021/01/24 02:48:25;;;;;;;43.05;20.75;;;7.80;99.10;;;;;;4998168;28;20080;-77
2021/01/24 02:50:52;;;;;;;40.78;20.52;;;7.80;99.10;;;;;;4978624;28;20121;-78
2021/01/24 02:53:19;;;;;;;45.47;21.60;;;7.80;99.20;;;;;;4994372;28;20483;-78
2021/01/24 02:55:45;;;;;;;40.90;20.63;;;7.80;99.30;;;;;;4994048;28;20022;-78
2021/01/24 02:58:12;;;;;;;38.80;20.30;;;7.80;99.30;;;;;;4993585;28;20033;-78
2021/01/24 03:00:38;;;;;;;37.55;20.63;;;7.80;99.30;;;;;;4993981;28;20029;-78
2021/01/24 03:03:03;;;;;;;42.20;21.25;;;7.80;99.30;;;;;;4976400;28;20027;-79
2021/01/24 03:05:29;;;;;;;39.75;21.55;;;7.80;99.40;;;;;;4976440;28;20026;-78
2021/01/24 03:07:55;;;;;;;38.13;20.80;;;7.90;99.50;;;;;;4994067;28;20023;-78
2021/01/24 03:10:21;;;;;;;38.53;21.02;;;7.90;99.40;;;;;;4993711;28;20022;-78
2021/01/24 03:12:54;;;;;;;39.55;20.75;;;7.90;99.50;;;;;;4976183;28;20030;-78
2021/01/24 03:15:21;;;;;;;40.30;22.20;;;8.00;99.60;;;;;;4976310;28;20495;-78
2021/01/24 03:17:48;;;;;;;41.22;22.00;;;8.00;99.50;;;;;;4993674;28;20031;-78
2021/01/24 03:20:15;;;;;;;37.78;20.92;;;8.00;99.50;;;;;;4993927;28;20368;-78
2021/01/24 03:22:43;;;;;;;40.20;21.35;;;8.00;99.50;;;;;;4993654;28;20088;-78
2021/01/24 03:25:10;;;;;;;38.33;20.02;;;8.10;99.50;;;;;;4993954;28;20026;-78
2021/01/24 03:27:36;;;;;;;39.45;20.80;;;8.00;99.50;;;;;;4993841;28;20022;-78
2021/01/24 03:30:02;;;;;;;42.20;21.10;;;8.10;99.40;;;;;;4976709;28;20034;-78
2021/01/24 03:32:28;;;;;;;33.30;19.23;;;8.10;99.40;;;;;;4997858;28;20028;-78
2021/01/24 03:34:54;;;;;;;42.85;20.45;;;8.10;99.40;;;;;;4997380;28;20086;-79
2021/01/24 03:37:20;;;;;;;39.22;20.55;;;8.10;99.40;;;;;;4997610;28;20026;-78
2021/01/24 03:39:46;;;;;;;41.03;20.83;;;8.10;99.40;;;;;;4979583;28;20404;-78
2021/01/24 03:42:12;;;;;;;46.50;21.80;;;8.10;99.50;;;;;;4997544;28;20035;-78
2021/01/24 03:44:37;;;;;;;41.25;21.25;;;8.10;99.50;;;;;;4979679;28;20468;-78
2021/01/24 03:47:03;;;;;;;40.65;20.75;;;8.20;99.40;;;;;;4997256;28;20022;-78
2021/01/24 03:49:29;;;;;;;48.47;22.65;;;8.20;99.40;;;;;;4996813;28;20057;-78
2021/01/24 03:51:55;;;;;;;40.88;21.30;;;8.10;99.30;;;;;;4996759;28;20023;-78
2021/01/24 03:54:21;;;;;;;39.88;21.40;;;8.20;99.30;;;;;;4996861;28;20030;-78
2021/01/24 03:56:47;;;;;;;44.65;22.45;;;8.20;99.30;;;;;;4995984;28;20032;-78
2021/01/24 03:59:12;;;;;;;46.47;21.27;;;8.20;99.30;;;;;;4996389;28;20109;-78
2021/01/24 04:01:38;;;;;;;47.78;22.80;;;8.20;99.30;;;;;;4979438;28;20040;-77
2021/01/24 04:04:04;;;;;;;36.35;22.20;;;8.20;99.30;;;;;;4996400;28;20035;-78
2021/01/24 04:06:30;;;;;;;48.35;22.00;;;8.20;99.20;;;;;;4996414;28;20033;-78
2021/01/24 04:08:56;;;;;;;40.78;22.10;;;8.20;99.30;;;;;;4996582;28;20404;-78
2021/01/24 04:11:22;;;;;;;48.35;23.73;;;8.20;99.30;;;;;;4996572;28;20022;-78
2021/01/24 04:13:48;;;;;;;49.97;24.27;;;8.20;99.30;;;;;;4996582;28;20457;-77
2021/01/24 04:16:14;;;;;;;44.80;23.80;;;8.20;99.20;;;;;;4979097;28;20157;-78
2021/01/24 04:18:40;;;;;;;41.17;23.73;;;8.20;99.20;;;;;;4979515;28;20073;-77
2021/01/24 04:21:06;;;;;;;44.88;25.13;;;8.20;99.20;;;;;;4996182;28;20132;-78
2021/01/24 04:23:32;;;;;;;50.78;24.17;;;8.10;99.10;;;;;;4996448;28;20034;-77
2021/01/24 04:25:58;;;;;;;50.42;22.73;;;8.20;99.10;;;;;;4995852;28;20047;-77
2021/01/24 04:28:24;;;;;;;50.63;25.02;;;8.20;99.20;;;;;;4996522;28;20512;-79
2021/01/24 04:30:50;;;;;;;46.72;22.92;;;8.10;99.10;;;;;;4978924;28;20081;-78
2021/01/24 04:33:16;;;;;;;41.80;23.35;;;8.20;99.10;;;;;;4996551;28;20389;-78
2021/01/24 04:35:41;;;;;;;42.17;23.50;;;8.20;99.10;;;;;;4996337;28;20465;-78
2021/01/24 04:38:07;;;;;;;45.85;23.00;;;8.20;99.10;;;;;;4996287;28;20058;-78
2021/01/24 04:40:33;;;;;;;46.47;23.88;;;8.20;99.10;;;;;;4996112;28;20026;-77
2021/01/24 04:42:59;;;;;;;48.33;23.58;;;8.20;99.10;;;;;;4994806;28;20049;-78
2021/01/24 04:45:25;;;;;;;51.17;22.92;;;8.10;99.10;;;;;;4995604;28;20031;-78
2021/01/24 04:47:52;;;;;;;49.88;24.05;;;8.20;99.10;;;;;;4978438;28;20476;-78
2021/01/24 04:50:18;;;;;;;48.05;23.20;;;8.20;99.10;;;;;;4995919;28;20046;-78
2021/01/24 04:52:45;;;;;;;44.47;20.35;;;8.10;99.00;;;;;;4995773;28;20358;-78
2021/01/24 04:55:13;;;;;;;46.55;21.80;;;8.10;99.00;;;;;;4978122;28;20084;-78
2021/01/24 04:57:39;;;;;;;47.35;22.00;;;8.10;98.90;;;;;;4995566;28;20393;-78
2021/01/24 05:00:06;;;;;;;50.83;22.00;;;8.10;98.80;;;;;;4995901;28;20023;-78
2021/01/24 05:02:32;;;;;;;46.40;22.63;;;8.10;98.80;;;;;;4995538;28;20105;-79
2021/01/24 05:04:58;;;;;;;43.58;21.35;;;8.00;98.80;;;;;;4995585;28;20129;-78
2021/01/24 05:07:24;;;;;;;42.65;21.50;;;8.00;98.70;;;;;;4978060;28;20031;-78
2021/01/24 05:09:50;;;;;;;54.25;22.63;;;8.00;98.70;;;;;;4995420;28;20023;-78
2021/01/24 05:12:18;;;;;;;39.00;20.45;;;8.00;98.70;;;;;;4995070;28;20099;-78
2021/01/24 05:14:47;;;;;;;35.72;19.75;;;8.00;98.70;;;;;;4995053;28;20069;-78
2021/01/24 05:17:13;;;;;;;50.17;20.77;;;7.90;98.90;;;;;;4978048;28;20734;-79
2021/01/24 05:19:39;;;;;;;44.10;20.48;;;7.90;98.80;;;;;;4977339;28;20080;-78
2021/01/24 05:22:05;;;;;;;40.85;20.58;;;7.90;98.70;;;;;;4994967;28;20043;-78
2021/01/24 05:24:31;;;;;;;39.30;20.35;;;7.90;98.80;;;;;;4994967;28;20041;-78
2021/01/24 05:27:07;;;;;;;39.78;20.33;;;7.90;98.90;;;;;;4977528;28;20029;-78
2021/01/24 05:29:35;;;;;;;41.92;19.85;;;7.90;98.90;;;;;;4994794;28;20484;-77
2021/01/24 05:32:01;;;;;;;37.13;20.15;;;7.90;98.90;;;;;;4994503;28;20022;-77
2021/01/24 05:34:28;;;;;;;38.65;18.85;;;7.90;98.90;;;;;;4994214;28;20033;-77
2021/01/24 05:36:56;;;;;;;38.30;18.63;;;7.90;98.90;;;;;;4994202;28;20164;-78
2021/01/24 05:39:22;;;;;;;44.60;19.58;;;7.90;98.90;;;;;;4994183;28;20080;-78
2021/01/24 05:41:51;;;;;;;38.80;18.75;;;7.90;99.00;;;;;;4976630;28;20026;-77
2021/01/24 05:44:18;;;;;;;37.70;19.05;;;7.90;98.90;;;;;;4993996;28;20487;-78
2021/01/24 05:46:45;;;;;;;33.50;17.60;;;7.90;98.90;;;;;;4993727;28;20048;-78
2021/01/24 05:49:12;;;;;;;31.60;18.10;;;8.00;98.90;;;;;;4993657;28;20050;-78
2021/01/24 05:51:39;;;;;;;37.13;18.08;;;7.90;98.90;;;;;;4994168;28;20014;-79
2021/01/24 05:54:05;;;;;;;35.28;17.65;;;8.00;98.90;;;;;;4993686;28;20081;-77
2021/01/24 05:56:31;;;;;;;39.83;17.67;;;8.00;98.90;;;;;;4976682;28;20027;-78
2021/01/24 05:59:01;;;;;;;35.08;17.45;;;8.00;98.90;;;;;;4977155;28;20440;-78
2021/01/24 06:01:28;;;;;;;30.60;17.33;;;8.00;98.90;;;;;;4994067;28;20030;-78
2021/01/24 06:03:59;;;;;;;34.17;17.77;;;8.10;98.90;;;;;;4994263;28;20408;-80
2021/01/24 06:06:25;;;;;;;32.20;16.08;;;8.10;98.90;;;;;;4993929;28;20018;-79
2021/01/24 06:08:51;;;;;;;31.30;17.60;;;8.10;98.80;;;;;;4993686;28;20050;-76
2021/01/24 06:11:18;;;;;;;30.85;16.08;;;8.10;98.60;;;;;;4993925;28;20053;-79
2021/01/24 06:13:54;;;;;;;32.00;16.52;;;8.10;98.70;;;;;;4976298;28;20023;-79
2021/01/24 06:16:29;;;;;;;32.15;15.40;;;8.10;98.70;;;;;;4993437;28;20022;-79
2021/01/24 06:18:56;;;;;;;31.40;16.33;;;8.10;98.70;;;;;;4976065;28;20101;-79
2021/01/24 06:21:36;;;;;;;34.22;15.40;;;8.20;98.70;;;;;;4993443;28;20100;-80
2021/01/24 06:24:10;;;;;;;39.67;15.90;;;8.20;98.70;;;;;;4993387;28;20045;-78
2021/01/24 06:26:39;;;;;;;28.83;13.65;;;8.20;98.60;;;;;;4993543;28;20034;-78
2021/01/24 06:29:08;;;;;;;29.33;15.27;;;8.20;98.60;;;;;;4993829;28;20018;-79
2021/01/24 06:31:34;;;;;;;30.27;14.15;;;8.20;98.60;;;;;;4976130;28;20105;-79
2021/01/24 06:34:08;;;;;;;27.33;12.13;;;8.20;98.50;;;;;;4975909;28;20026;-78
2021/01/24 06:37:02;;;;;;;27.52;12.68;;;8.20;98.50;;;;;;4992756;28;20535;-79
2021/01/24 06:39:31;;;;;;;27.52;12.80;;;8.20;98.50;;;;;;4983863;28;20042;-79
2021/01/24 06:41:57;;;;;;;31.27;13.40;;;8.30;98.40;;;;;;4992730;28;20436;-77
2021/01/24 06:44:36;;;;;;;26.95;13.43;;;8.30;98.40;;;;;;4993066;28;20027;-78
2021/01/24 06:47:28;;;;;;;33.83;14.18;;;8.30;98.30;;;;;;4993136;28;20514;-79
2021/01/24 06:49:54;;;;;;;31.77;14.10;;;8.40;98.20;;;;;;4992841;28;20034;-78
2021/01/24 06:52:23;;;;;;;30.95;14.40;;;8.30;98.10;;;;;;4993286;28;20125;-79
2021/01/24 06:54:50;;;;;;;31.92;13.75;;;8.40;98.10;;;;;;4993179;28;20102;-78
2021/01/24 06:57:17;;;;;;;31.50;14.77;;;8.40;98.10;;;;;;4993227;28;20023;-79
2021/01/24 06:59:43;;;;;;;31.38;14.95;;;8.40;98.10;;;;;;4993203;28;20026;-79
2021/01/24 07:02:22;;;;;;;35.95;15.38;;;8.40;98.00;;;;;;4975761;28;20033;-79
2021/01/24 07:05:07;;;;;;;32.25;13.45;;;8.40;97.80;;;;;;4993250;28;20027;-78
2021/01/24 07:07:35;;;;;;;33.10;14.45;;;8.40;97.80;;;;;;4997198;28;20146;-78
2021/01/24 07:10:02;;;;;;;28.35;13.98;;;8.50;97.70;;;;;;4998535;28;20345;-78
2021/01/24 07:12:42;;;;;;;32.13;14.23;;;8.50;97.60;;;;;;4998948;28;20081;-78
2021/01/24 07:15:11;;;;;;;25.70;13.20;;;8.50;97.60;;;;;;4997406;28;20040;-79
2021/01/24 07:17:37;;;;;;;27.77;13.70;;;8.50;97.50;;;;;;4997531;28;20026;-77
2021/01/24 07:20:05;;;;;;;21.67;12.65;;;8.50;97.50;;;;;;4996625;28;20097;-79
2021/01/24 07:22:32;;;;;;;25.17;12.85;;;8.50;97.50;;;;;;4979127;28;20846;-79
2021/01/24 07:24:58;;;;;;;23.13;12.55;;;8.60;97.50;;;;;;4978627;28;20802;-79
2021/01/24 07:27:27;;;;;;;21.92;12.50;;;8.60;97.50;;;;;;4996372;28;20041;-79
2021/01/24 07:29:53;;;;;;;21.52;11.75;;;8.60;97.40;;;;;;4996516;28;20019;-79
2021/01/24 07:32:22;;;;;;;23.50;11.27;;;8.70;97.40;;;;;;4996497;28;20053;-79
2021/01/24 07:34:51;;;;;;;24.73;11.73;;;8.80;97.50;;;;;;4995862;28;20029;-79
2021/01/24 07:37:17;;;;;;;18.80;11.32;;;8.80;97.30;;;;;;4978805;28;20030;-79
2021/01/24 07:39:44;;;;;;;24.85;11.98;;;8.90;97.30;;;;;;4996279;28;20085;-79
2021/01/24 07:42:11;;;;;;;19.73;10.80;;;8.90;97.20;;;;;;4996015;28;20030;-79
2021/01/24 07:44:38;;;;;;;22.02;11.77;;;9.00;97.10;;;;;;4996054;28;20037;-79
2021/01/24 07:47:05;;;;;;;26.08;11.10;;;9.10;96.90;;;;;;4995799;28;20026;-79
2021/01/24 07:49:31;;;;;;;23.27;10.65;;;9.10;96.90;;;;;;4995638;28;20054;-79
2021/01/24 07:51:57;;;;;;;22.35;11.40;;;9.20;96.80;;;;;;4995865;28;20073;-79
2021/01/24 07:54:23;;;;;;;20.60;11.57;;;9.30;97.00;;;;;;4995743;28;20786;-79
2021/01/24 07:56:49;;;;;;;21.35;10.48;;;9.30;97.00;;;;;;4995613;28;20072;-79
2021/01/24 07:59:16;;;;;;;21.05;10.27;;;9.40;96.90;;;;;;4978607;28;20030;-80
2021/01/24 08:01:43;;;;;;;18.10;10.27;;;9.50;96.90;;;;;;4995775;28;20525;-79
2021/01/24 08:04:09;;;;;;;17.10;9.98;;;9.60;96.70;;;;;;4994862;28;20036;-79
2021/01/24 08:06:38;;;;;;;21.92;11.00;;;9.70;96.30;;;;;;4995004;28;20019;-78
2021/01/24 08:09:06;;;;;;;20.80;10.55;;;9.70;96.10;;;;;;4995465;28;20018;-80
2021/01/24 08:11:32;;;;;;;18.20;9.18;;;9.80;96.00;;;;;;4995682;28;20018;-79
2021/01/24 08:13:58;;;;;;;19.67;10.63;;;9.90;95.90;;;;;;4995406;28;20026;-79
2021/01/24 08:16:32;;;;;;;17.48;10.60;;;10.00;96.00;;;;;;4994808;28;20026;-78
2021/01/24 08:18:58;;;;;;;21.80;10.77;;;10.00;95.60;;;;;;4995350;28;20030;-79
2021/01/24 08:21:25;;;;;;;23.35;10.82;;;10.10;95.70;;;;;;4988687;28;20375;-79
2021/01/24 08:23:52;;;;;;;23.20;10.10;;;10.20;95.40;;;;;;4975715;28;20030;-79
2021/01/24 08:26:19;;;;;;;14.93;9.18;;;10.30;95.10;;;;;;4975497;28;20026;-78
2021/01/24 08:28:46;;;;;;;14.30;8.65;;;10.30;94.80;;;;;;4958150;28;20023;-79
2021/01/24 08:31:18;;;;;;;16.80;9.40;;;10.40;94.50;;;;;;4959883;28;20102;-80
2021/01/24 08:33:44;;;;;;;17.27;9.70;;;10.40;94.10;;;;;;4975245;28;20442;-79
2021/01/24 08:36:13;;;;;;;19.05;9.48;;;10.40;94.10;;;;;;4975062;28;20274;-79
2021/01/24 08:38:41;;;;;;;26.55;11.60;;;10.40;93.80;;;;;;4975483;28;20035;-78
2021/01/24 08:41:07;;;;;;;23.42;11.57;;;10.50;94.10;;;;;;4975423;28;20409;-80
2021/01/24 08:43:32;;;;;;;21.13;10.88;;;10.50;93.60;;;;;;4975003;28;20104;-79
2021/01/24 08:46:21;;;;;;;20.33;10.30;;;10.50;93.20;;;;;;4974869;28;20030;-81
2021/01/24 08:49:08;;;;;;;16.92;9.38;;;10.50;93.10;;;;;;4974755;28;20026;-79
2021/01/24 08:51:54;;;;;;;39.47;18.20;;;10.60;92.70;;;;;;4957115;28;20122;-80
2021/01/24 08:54:31;;;;;;;38.30;17.08;;;10.50;92.70;;;;;;4974591;28;20031;-80
2021/01/24 08:57:10;;;;;;;30.10;14.20;;;10.60;92.70;;;;;;4957936;28;20030;-80
2021/01/24 08:59:37;;;;;;;29.63;15.00;;;10.60;92.50;;;;;;4957838;28;20027;-82
2021/01/24 09:02:03;;;;;;;28.80;14.82;;;10.60;92.30;;;;;;4959640;28;20094;-83
2021/01/24 09:04:30;;;;;;;27.52;14.10;;;10.60;92.10;;;;;;4975397;28;20074;-81
2021/01/24 09:07:06;;;;;;;20.73;12.32;;;10.50;91.80;;;;;;4975642;28;20122;-82
2021/01/24 09:09:34;;;;;;;22.42;11.40;;;10.50;91.80;;;;;;4975179;28;20359;-81
2021/01/24 09:12:01;;;;;;;17.27;9.10;;;10.50;92.00;;;;;;4974984;28;20023;-80
2021/01/24 09:14:27;;;;;;;15.60;8.65;;;10.50;91.80;;;;;;4957864;28;20066;-80
2021/01/24 09:17:02;;;;;;;16.40;7.85;;;10.60;91.70;;;;;;4975461;28;20430;-80
2021/01/24 09:19:28;;;;;;;15.73;8.73;;;10.60;91.70;;;;;;4975311;28;20069;-80
2021/01/24 09:21:54;;;;;;;13.70;8.35;;;10.60;91.80;;;;;;4982523;28;20050;-80
2021/01/24 09:24:20;;;;;;;16.20;7.07;;;10.60;91.60;;;;;;4994410;28;20026;-80
2021/01/24 09:26:47;;;;;;;16.88;8.55;;;10.70;91.60;;;;;;4994707;28;20026;-80
2021/01/24 09:29:16;;;;;;;15.32;8.40;;;10.80;91.40;;;;;;4993518;28;20025;-78
2021/01/24 09:31:42;;;;;;;19.20;8.48;;;10.90;91.60;;;;;;4976735;28;20027;-81
2021/01/24 09:34:08;;;;;;;11.50;8.02;;;11.10;91.90;;;;;;4994186;28;20101;-80
2021/01/24 09:36:34;;;;;;;14.18;8.27;;;11.40;91.70;;;;;;4976514;28;20026;-79
2021/01/24 09:39:00;;;;;;;16.42;8.55;;;11.60;91.10;;;;;;4994593;28;20019;-81
2021/01/24 09:41:26;;;;;;;15.13;10.43;;;11.70;90.70;;;;;;4993456;28;20019;-80
2021/01/24 09:43:52;;;;;;;15.30;9.52;;;11.80;90.50;;;;;;4995978;28;20073;-81
2021/01/24 09:46:17;;;;;;;13.15;8.52;;;11.80;90.10;;;;;;4995129;28;20113;-81
2021/01/24 09:48:43;;;;;;;18.30;8.48;;;11.90;89.90;;;;;;4976925;28;20061;-80
2021/01/24 09:51:09;;;;;;;18.00;8.20;;;11.90;89.60;;;;;;4994162;28;20050;-80
2021/01/24 09:53:36;;;;;;;16.27;8.82;;;11.90;89.50;;;;;;4993833;28;20065;-80
2021/01/24 09:56:06;;;;;;;14.40;8.88;;;11.90;89.00;;;;;;4960995;28;20058;-82
2021/01/24 09:58:33;;;;;;;15.45;8.38;;;12.00;89.20;;;;;;4994389;28;20027;-80
2021/01/24 10:00:59;;;;;;;13.25;8.23;;;12.10;89.20;;;;;;4977017;28;20045;-80
2021/01/24 10:03:25;;;;;;;11.95;7.78;;;12.20;88.90;;;;;;4993557;28;20092;-82
2021/01/24 10:05:51;;;;;;;12.32;7.15;;;12.30;87.80;;;;;;4975867;28;20489;-81
2021/01/24 10:08:18;;;;;;;15.15;7.55;;;12.30;87.40;;;;;;4993393;28;20051;-80
2021/01/24 10:10:46;;;;;;;13.10;6.68;;;12.20;86.20;;;;;;4993671;28;20026;-79
2021/01/24 10:13:15;;;;;;;12.65;6.70;;;12.20;86.20;;;;;;4993353;28;20018;-79
2021/01/24 10:15:41;;;;;;;12.65;7.57;;;12.20;86.10;;;;;;4992892;28;20102;-80
2021/01/24 10:18:08;;;;;;;15.20;7.38;;;12.30;86.60;;;;;;4993420;28;20388;-81
2021/01/24 10:20:34;;;;;;;12.85;7.03;;;12.30;86.30;;;;;;4993212;28;20038;-80
2021/01/24 10:23:00;;;;;;;13.57;7.63;;;12.40;86.40;;;;;;4993032;28;20046;-80
2021/01/24 10:25:26;;;;;;;13.98;7.53;;;12.50;86.20;;;;;;4993017;28;20030;-80
2021/01/24 10:27:52;;;;;;;12.80;7.53;;;12.80;86.70;;;;;;4993045;28;20062;-81
2021/01/24 10:30:18;;;;;;;14.50;7.32;;;13.20;85.90;;;;;;4993555;28;20023;-81
2021/01/24 10:32:44;;;;;;;9.32;6.90;;;13.50;85.20;;;;;;4993204;28;20146;-80
2021/01/24 10:35:10;;;;;;;14.68;7.18;;;13.80;84.10;;;;;;4992757;28;20026;-79
2021/01/24 10:37:36;;;;;;;13.70;6.97;;;13.90;82.90;;;;;;4992736;28;20503;-80
2021/01/24 10:40:06;;;;;;;12.02;8.70;;;14.10;82.80;;;;;;4992927;28;20133;-81
2021/01/24 10:42:38;;;;;;;14.73;7.30;;;14.40;82.10;;;;;;4992866;28;20076;-80
2021/01/24 10:45:06;;;;;;;10.43;6.53;;;14.60;80.90;;;;;;4992829;28;20384;-80
2021/01/24 10:47:32;;;;;;;11.15;7.07;;;14.90;80.60;;;;;;4992780;28;20062;-81
2021/01/24 10:49:58;;;;;;;17.15;6.85;;;15.00;79.10;;;;;;4992704;28;20018;-80
2021/01/24 10:52:24;;;;;;;12.45;6.97;;;15.20;78.80;;;;;;4992965;28;20077;-80
2021/01/24 10:54:50;;;;;;;10.40;7.10;;;15.30;78.30;;;;;;4992589;28;20026;-80
2021/01/24 10:57:15;;;;;;;13.10;7.40;;;15.40;77.50;;;;;;4992737;28;20057;-82
2021/01/24 10:59:41;;;;;;;12.00;6.93;;;15.50;76.60;;;;;;4992587;28;20026;-80
2021/01/24 11:02:07;;;;;;;13.57;7.22;;;15.70;76.60;;;;;;4992710;28;20046;-79
2021/01/24 11:04:33;;;;;;;11.15;7.45;;;15.80;75.70;;;;;;4992906;28;20035;-80
2021/01/24 11:07:00;;;;;;;9.60;6.75;;;15.90;75.10;;;;;;4992567;28;20094;-80
2021/01/24 11:09:26;;;;;;;10.20;6.93;;;16.00;74.40;;;;;;4976053;28;20026;-80
2021/01/24 11:11:52;;;;;;;12.48;6.95;;;16.00;74.00;;;;;;4992858;28;20388;-80
2021/01/24 11:14:18;;;;;;;14.20;7.20;;;15.90;72.90;;;;;;4993673;28;20038;-80
2021/01/24 11:16:44;;;;;;;13.77;7.32;;;15.60;72.40;;;;;;4994780;28;20169;-81
2021/01/24 11:19:10;;;;;;;13.95;7.72;;;15.50;73.40;;;;;;4994892;28;20045;-81
2021/01/24 11:21:36;;;;;;;13.70;7.55;;;15.50;73.40;;;;;;4994052;28;20042;-81
2021/01/24 11:24:01;;;;;;;10.00;7.65;;;15.50;73.40;;;;;;4976683;28;20072;-79
2021/01/24 11:26:27;;;;;;;14.30;7.57;;;15.40;73.50;;;;;;4994211;28;20022;-79
2021/01/24 11:28:53;;;;;;;11.65;7.60;;;15.40;72.70;;;;;;4994602;28;20026;-81
2021/01/24 11:31:19;;;;;;;12.73;7.43;;;15.20;72.70;;;;;;4976857;28;20422;-80
2021/01/24 11:33:45;;;;;;;13.48;8.20;;;15.00;72.60;;;;;;4976353;28;20031;-80
2021/01/24 11:36:12;;;;;;;10.38;7.20;;;14.70;72.60;;;;;;4995107;28;20468;-80
2021/01/24 11:38:38;;;;;;;10.68;7.25;;;14.50;72.50;;;;;;4993186;28;20491;-79
2021/01/24 11:41:04;;;;;;;12.30;7.55;;;14.30;73.30;;;;;;4992753;28;20026;-80
2021/01/24 11:43:30;;;;;;;12.88;7.25;;;14.10;73.60;;;;;;4992691;28;20030;-80
2021/01/24 11:45:57;;;;;;;13.93;7.47;;;14.00;74.60;;;;;;4992622;28;20049;-80
2021/01/24 11:48:23;;;;;;;10.55;7.45;;;13.80;74.00;;;;;;4975040;28;20088;-80
2021/01/24 11:50:50;;;;;;;12.70;7.03;;;13.70;74.60;;;;;;4992834;28;20403;-81
2021/01/24 11:53:17;;;;;;;14.00;8.07;;;13.60;74.80;;;;;;4978573;28;20022;-81
2021/01/24 11:55:43;;;;;;;17.05;8.68;;;13.50;75.00;;;;;;4996436;28;20023;-80
2021/01/24 11:58:08;;;;;;;16.65;8.52;;;13.50;75.40;;;;;;4997331;28;20032;-81
2021/01/24 12:00:34;;;;;;;13.25;7.85;;;13.40;75.40;;;;;;4997071;28;20097;-81
2021/01/24 12:03:00;;;;;;;11.27;7.22;;;13.40;76.00;;;;;;5005300;28;20024;-81
2021/01/24 12:05:26;;;;;;;10.00;7.30;;;13.50;76.40;;;;;;5007432;28;20034;-80
2021/01/24 12:07:51;;;;;;;9.20;7.07;;;13.60;76.20;;;;;;5005394;28;20030;-82
2021/01/24 12:10:17;;;;;;;11.63;7.78;;;13.60;76.30;;;;;;5003184;28;20513;-81
2021/01/24 12:12:43;;;;;;;13.25;8.13;;;13.60;76.20;;;;;;4996332;28;20106;-81
2021/01/24 12:15:09;;;;;;;12.70;7.47;;;13.60;75.80;;;;;;4996185;28;20022;-82
2021/01/24 12:17:35;;;;;;;15.27;7.60;;;13.60;75.80;;;;;;4996658;28;20109;-82
2021/01/24 12:20:00;;;;;;;11.52;7.35;;;13.50;76.10;;;;;;4996354;28;20054;-81
2021/01/24 12:22:26;;;;;;;10.75;7.18;;;13.50;76.50;;;;;;4996478;28;20058;-81
2021/01/24 12:24:52;;;;;;;10.02;7.00;;;13.60;76.80;;;;;;4978622;28;20033;-81
2021/01/24 12:27:18;;;;;;;12.57;6.68;;;13.60;76.70;;;;;;4996129;28;20026;-82
2021/01/24 12:29:44;;;;;;;11.98;7.03;;;13.60;76.50;;;;;;4977759;28;20521;-81
2021/01/24 12:32:09;;;;;;;11.05;7.32;;;13.50;76.20;;;;;;4978439;28;20122;-81
2021/01/24 12:34:35;;;;;;;13.73;7.47;;;13.50;76.40;;;;;;4995726;28;20050;-81
2021/01/24 12:37:01;;;;;;;11.85;7.78;;;13.40;76.20;;;;;;4995580;28;20471;-82